KEVB

New Smyrna Beach Municipal Airport

New Smyrna Beach, Florida, USA
METAR KEVB 112347Z 00000KT 10SM CLR 08/05 A3030
Observed Flight Rules
Dec-11 @ 23:47 UTC (55 minutes ago) Visual Flight Rules
Visibility Clouds
10 miles
  • Clear skies
Temperatures Readings
Current 8°C / 46°F
Dewpoint 5°C / 41°F
Humidity 82%
Altimeter 30.3" Hg
Pressure 1026 hPa
Elevation 3
METAR KEVB 112347Z 00000KT 10SM CLR 08/05 A3030
Observed Flight Rules
Dec-11 @ 23:47 UTC
(55 minutes ago)
VFR
Clouds
  • Clear skies
Temperature Dewpoint
8°C / 46°F 5°C / 41°F
Humidity Altimeter Pressure
82% 30.3" Hg 1026 hPa